Time;durP1;ratioP1;P1;durP2;ratioP2;P2;SDS_P1;SDS_P2;PMS_P1;PMS_P2;Temp;Humidity;BMP_temperature;BMP_pressure;BME280_temperature;BME280_humidity;BME280_pressure;Samples;Min_cycle;Max_cycle;Signal;HPM_P1;HPM_P2
2023/03/17 00:00:35;;;;;;;6.45;5.00;;;;;;;10.38;78.62;101644.16;5005615;28;20027;-88
2023/03/17 00:03:02;;;;;;;6.43;4.90;;;;;;;10.22;78.59;101613.44;4989582;28;20026;-89
2023/03/17 00:05:32;;;;;;;7.90;5.10;;;;;;;10.37;78.79;101642.34;5011534;28;20033;-88
2023/03/17 00:08:10;;;;;;;6.32;4.80;;;;;;;10.12;78.32;101584.91;4993203;28;20048;-88
2023/03/17 00:10:36;;;;;;;7.53;4.88;;;;;;;10.02;78.52;101587.69;4975349;28;20514;-88
2023/03/17 00:13:02;;;;;;;7.15;4.70;;;;;;;9.92;78.48;101552.22;4978263;28;20177;-89
2023/03/17 00:15:29;;;;;;;6.40;4.93;;;;;;;10.34;78.56;101632.59;4984456;28;20031;-89
2023/03/17 00:17:55;;;;;;;6.63;4.90;;;;;;;9.85;78.38;101539.56;4988941;28;20026;-88
2023/03/17 00:20:26;;;;;;;6.32;4.78;;;;;;;9.88;78.76;101563.22;4986756;28;20033;-88
2023/03/17 00:22:56;;;;;;;7.80;4.50;;;;;;;9.93;78.88;101593.16;4994491;28;20053;-88
2023/03/17 00:25:26;;;;;;;6.05;4.60;;;;;;;9.94;78.39;101587.13;4994302;28;20451;-89
2023/03/17 00:27:53;;;;;;;6.55;4.88;;;;;;;9.77;77.94;101572.91;4976168;28;20184;-89
2023/03/17 00:30:20;;;;;;;6.55;4.80;;;;;;;10.18;78.91;101645.34;4999575;28;20037;-89
2023/03/17 00:32:50;;;;;;;7.13;4.80;;;;;;;10.07;78.82;101621.09;4965517;28;20036;-88
2023/03/17 00:35:20;;;;;;;6.60;4.65;;;;;;;9.99;78.78;101611.88;4996797;28;20380;-89
2023/03/17 00:37:46;;;;;;;6.45;4.75;;;;;;;9.77;78.61;101583.34;4992054;28;20056;-89
2023/03/17 00:40:16;;;;;;;;;;;;;;;10.26;78.57;101656.31;5003345;28;20029;-89
2023/03/17 00:42:42;;;;;;;6.38;4.53;;;;;;;10.12;78.38;101631.91;4994453;28;19967;-89
2023/03/17 00:45:09;;;;;;;8.85;5.20;;;;;;;10.12;78.48;101635.41;4992779;28;20030;-89
2023/03/17 00:47:36;;;;;;;6.65;4.50;;;;;;;10.10;78.59;101634.38;4997466;28;20034;-88
2023/03/17 00:50:05;;;;;;;10.38;5.20;;;;;;;10.18;78.07;101656.72;5007039;28;20514;-88
2023/03/17 00:52:32;;;;;;;6.40;4.93;;;;;;;10.06;78.44;101639.28;4980795;28;21045;-88
2023/03/17 00:54:57;;;;;;;7.20;5.13;;;;;;;10.00;78.71;101631.94;4998055;28;20479;-88
2023/03/17 00:57:23;;;;;;;6.90;4.75;;;;;;;10.21;78.42;101669.06;4998092;28;20037;-87
2023/03/17 00:59:49;;;;;;;6.10;4.70;;;;;;;9.79;78.30;101598.31;4985901;28;20187;-89
2023/03/17 01:02:14;;;;;;;6.65;4.88;;;;;;;10.12;78.33;101661.50;4995906;28;20034;-89
2023/03/17 01:04:43;;;;;;;6.25;4.90;;;;;;;10.14;78.41;101659.00;5008675;28;20042;-88
2023/03/17 01:07:12;;;;;;;7.57;5.20;;;;;;;9.90;78.08;101613.81;4979647;28;20119;-89
2023/03/17 01:09:40;;;;;;;6.57;4.70;;;;;;;9.72;78.36;101585.63;4988219;28;20034;-87
2023/03/17 01:12:09;;;;;;;6.07;4.72;;;;;;;9.98;78.04;101634.41;5000484;28;20026;-87
2023/03/17 01:14:35;;;;;;;7.50;5.00;;;;;;;10.06;77.95;101655.84;4992446;28;20080;-88
2023/03/17 01:17:01;;;;;;;6.35;4.53;;;;;;;9.84;78.19;101610.78;4999122;28;20034;-88
2023/03/17 01:19:28;;;;;;;7.95;5.00;;;;;;;9.95;77.76;101633.31;4997519;28;20065;-89
2023/03/17 01:21:53;;;;;;;7.47;4.72;;;;;;;10.02;78.25;101640.78;5002676;28;20029;-88
2023/03/17 01:24:19;;;;;;;5.03;4.28;;;;;;;10.20;77.91;101677.66;5006503;28;20026;-88
2023/03/17 01:26:45;;;;;;;6.15;4.55;;;;;;;9.73;78.26;101602.19;4986226;28;20046;-88
2023/03/17 01:29:11;;;;;;;5.80;4.38;;;;;;;10.01;77.99;101644.16;4983345;28;20034;-88
2023/03/17 01:31:37;;;;;;;5.85;4.68;;;;;;;9.95;78.08;101655.09;5001290;28;20088;-88
2023/03/17 01:34:04;;;;;;;;;;;;;;;10.16;77.89;101686.13;5006176;28;20026;-89
2023/03/17 01:36:30;;;;;;;5.43;4.30;;;;;;;9.94;77.72;101623.66;5000342;28;19920;-88
2023/03/17 01:38:56;;;;;;;8.40;5.35;;;;;;;10.19;77.79;101682.00;4993477;28;20415;-88
2023/03/17 01:41:21;;;;;;;6.68;5.07;;;;;;;10.15;78.16;101681.69;4993614;28;20091;-89
2023/03/17 01:43:47;;;;;;;6.82;5.00;;;;;;;10.00;77.49;101642.38;4991814;28;20058;-89
2023/03/17 01:46:14;;;;;;;6.57;4.80;;;;;;;10.19;77.63;101675.88;4991677;28;20535;-88
2023/03/17 01:48:41;;;;;;;5.95;4.65;;;;;;;10.17;77.65;101686.19;5000872;28;20162;-89
2023/03/17 01:51:11;;;;;;;5.90;4.88;;;;;;;9.99;77.98;101658.84;4993442;28;20033;-87
2023/03/17 01:53:38;;;;;;;6.45;4.72;;;;;;;10.01;78.06;101662.44;4975777;28;20026;-89
2023/03/17 01:56:05;;;;;;;6.57;4.75;;;;;;;10.09;77.74;101669.09;5009343;28;20036;-89
2023/03/17 01:58:30;;;;;;;5.15;4.03;;;;;;;10.05;77.91;101668.78;4994298;28;20057;-88
2023/03/17 02:00:56;;;;;;;5.70;4.38;;;;;;;10.02;77.84;101671.19;4984845;28;20140;-88
2023/03/17 02:03:23;;;;;;;6.30;4.70;;;;;;;10.13;77.70;101680.66;4992246;28;20040;-88
2023/03/17 02:05:50;;;;;;;6.22;4.82;;;;;;;9.98;77.87;101665.72;4996055;28;20033;-88
2023/03/17 02:08:16;;;;;;;7.40;4.53;;;;;;;10.08;77.70;101697.72;4972428;28;20034;-88
2023/03/17 02:10:43;;;;;;;5.93;4.50;;;;;;;10.05;78.00;101694.88;4986586;28;20030;-88
2023/03/17 02:13:10;;;;;;;5.53;4.78;;;;;;;10.02;77.74;101700.78;4992051;28;20095;-89
2023/03/17 02:15:47;;;;;;;6.15;4.80;;;;;;;9.82;77.46;101664.53;4988562;28;20030;-87
2023/03/17 02:18:13;;;;;;;;;;;;;;;10.09;77.78;101700.41;4997755;28;20033;-89
2023/03/17 02:20:39;;;;;;;5.47;4.60;;;;;;;10.05;78.35;101707.91;4998927;28;19925;-89
2023/03/17 02:23:06;;;;;;;5.75;4.45;;;;;;;9.99;77.64;101687.53;4998403;28;20037;-89
2023/03/17 02:25:34;;;;;;;6.00;4.90;;;;;;;9.77;78.22;101664.22;4994461;28;20025;-88
2023/03/17 02:28:16;;;;;;;5.93;4.80;;;;;;;9.87;77.91;101682.34;4992349;28;20041;-89
2023/03/17 02:30:42;;;;;;;5.75;4.72;;;;;;;9.87;77.76;101681.44;4980924;28;20168;-89
2023/03/17 02:33:10;;;;;;;6.22;4.95;;;;;;;9.49;77.93;101627.44;5006704;28;20029;-89
2023/03/17 02:35:37;;;;;;;5.70;4.60;;;;;;;9.95;77.72;101702.06;4991963;28;20042;-88
2023/03/17 02:38:02;;;;;;;;;;;;;;;10.10;77.16;101710.06;4994097;28;20045;-89
2023/03/17 02:40:28;;;;;;;5.45;4.38;;;;;;;9.77;78.29;101675.53;4981310;28;19952;-89
2023/03/17 02:42:55;;;;;;;5.47;4.57;;;;;;;9.90;78.08;101706.03;4982036;28;20061;-87
2023/03/17 02:45:22;;;;;;;6.32;5.00;;;;;;;9.85;77.96;101709.13;4991432;28;20065;-86
2023/03/17 02:47:48;;;;;;;6.60;4.72;;;;;;;9.88;77.38;101711.94;4969424;28;20026;-89
2023/03/17 02:50:22;;;;;;;5.80;4.70;;;;;;;9.88;77.59;101718.06;4998886;28;20033;-89
2023/03/17 02:52:49;;;;;;;6.00;5.03;;;;;;;9.75;77.33;101689.28;5000710;28;20034;-89
2023/03/17 02:55:15;;;;;;;6.32;5.00;;;;;;;9.84;77.27;101705.63;4993590;28;20037;-89
2023/03/17 02:57:40;;;;;;;5.50;4.60;;;;;;;9.74;77.48;101698.81;4982839;28;20034;-88
2023/03/17 03:00:09;;;;;;;5.43;4.50;;;;;;;9.96;77.46;101722.13;5006857;28;20057;-87
2023/03/17 03:02:36;;;;;;;6.22;4.80;;;;;;;9.83;77.60;101703.78;4991188;28;20060;-88
2023/03/17 03:05:05;;;;;;;5.50;4.45;;;;;;;9.96;77.08;101722.13;5011061;28;20384;-88
2023/03/17 03:07:32;;;;;;;6.38;4.70;;;;;;;10.01;77.38;101738.09;5004103;28;20038;-88
2023/03/17 03:10:05;;;;;;;5.85;4.63;;;;;;;9.95;76.97;101724.66;4997470;28;20496;-89
2023/03/17 03:12:30;;;;;;;6.43;4.68;;;;;;;9.84;77.21;101713.44;4979307;28;20030;-89
2023/03/17 03:14:57;;;;;;;6.40;4.78;;;;;;;10.01;77.75;101751.16;5019275;28;20376;-88
2023/03/17 03:17:23;;;;;;;6.10;5.00;;;;;;;9.90;77.31;101726.00;4999090;28;20041;-88
2023/03/17 03:19:49;;;;;;;5.28;4.45;;;;;;;9.86;77.86;101739.63;5010957;28;20087;-88
2023/03/17 03:22:15;;;;;;;7.35;4.80;;;;;;;9.98;76.82;101748.34;4989763;28;20104;-88
2023/03/17 03:24:40;;;;;;;6.30;4.75;;;;;;;9.70;77.11;101708.91;4995775;28;20041;-88
2023/03/17 03:27:07;;;;;;;5.95;4.47;;;;;;;9.71;76.80;101697.69;4980743;28;20491;-89
2023/03/17 03:29:33;;;;;;;5.72;4.50;;;;;;;9.66;77.38;101710.38;4988162;28;20029;-88
2023/03/17 03:31:58;;;;;;;6.15;5.18;;;;;;;9.82;77.45;101732.34;5004610;28;20032;-89
2023/03/17 03:34:24;;;;;;;5.95;4.55;;;;;;;9.92;77.56;101747.88;4986251;28;20026;-89
2023/03/17 03:36:50;;;;;;;5.55;4.45;;;;;;;9.84;76.99;101739.53;4976720;28;20427;-89
2023/03/17 03:39:15;;;;;;;6.30;4.85;;;;;;;9.82;77.05;101727.16;4991846;28;20033;-88
2023/03/17 03:41:42;;;;;;;5.93;4.43;;;;;;;9.70;77.78;101728.06;4980983;28;20513;-89
2023/03/17 03:46:52;;;;;;;5.28;4.57;;;;;;;9.84;77.19;101747.34;4979693;28;20033;-88
2023/03/17 03:49:18;;;;;;;5.28;4.47;;;;;;;9.63;77.33;101710.19;4991730;28;20026;-88
2023/03/17 03:51:44;;;;;;;4.88;4.32;;;;;;;9.53;77.61;101721.63;4980339;28;20053;-88
2023/03/17 03:54:09;;;;;;;8.25;4.60;;;;;;;9.76;77.26;101745.88;5002334;28;20026;-87
2023/03/17 03:56:35;;;;;;;5.75;4.75;;;;;;;9.62;77.14;101720.50;4994294;28;20721;-87
2023/03/17 03:59:00;;;;;;;5.72;4.32;;;;;;;9.44;77.46;101707.00;4993977;28;20096;-87
2023/03/17 04:01:27;;;;;;;5.93;4.53;;;;;;;9.69;76.89;101741.00;4994364;28;20033;-88
2023/03/17 04:03:52;;;;;;;;;;;;;;;9.85;77.19;101766.50;4994355;28;20026;-88
2023/03/17 04:06:19;;;;;;;6.07;4.55;;;;;;;9.48;77.32;101714.25;4999506;28;19909;-89
2023/03/17 04:08:46;;;;;;;6.85;4.90;;;;;;;9.73;76.97;101767.41;4991100;28;20050;-89
2023/03/17 04:11:12;;;;;;;6.18;4.85;;;;;;;9.74;77.55;101779.69;4980911;28;20459;-88
2023/03/17 04:13:37;;;;;;;4.97;4.22;;;;;;;9.75;76.76;101784.09;4991136;28;20060;-87
2023/03/17 04:16:03;;;;;;;5.23;4.27;;;;;;;9.71;77.36;101782.03;5003501;28;20173;-88
2023/03/17 04:18:30;;;;;;;6.43;4.85;;;;;;;9.74;76.97;101786.59;5007247;28;20281;-87
2023/03/17 04:20:56;;;;;;;6.25;4.60;;;;;;;9.74;77.10;101776.16;4992879;28;20109;-87
2023/03/17 04:23:22;;;;;;;6.45;4.68;;;;;;;9.60;77.09;101782.97;5005575;28;20532;-87
2023/03/17 04:25:49;;;;;;;6.85;5.15;;;;;;;9.63;77.17;101788.41;4993850;28;20407;-87
2023/03/17 04:28:16;;;;;;;6.20;4.75;;;;;;;9.42;76.56;101738.19;4987788;28;20660;-87
2023/03/17 04:30:42;;;;;;;6.15;4.57;;;;;;;9.40;76.24;101747.59;5006850;28;20028;-87
2023/03/17 04:33:07;;;;;;;7.05;4.55;;;;;;;9.41;76.63;101775.47;4993804;28;20026;-86
2023/03/17 04:35:33;;;;;;;5.88;4.22;;;;;;;9.77;76.42;101824.22;5000946;28;20053;-87
2023/03/17 04:37:59;;;;;;;5.75;4.47;;;;;;;9.29;76.64;101741.59;5005341;28;20099;-87
2023/03/17 04:40:24;;;;;;;5.20;4.53;;;;;;;9.54;76.95;101791.22;4997812;28;20502;-87
2023/03/17 04:42:50;;;;;;;6.25;4.75;;;;;;;9.64;77.10;101807.56;5002123;28;20840;-89
2023/03/17 04:45:15;;;;;;;6.60;4.57;;;;;;;9.48;76.14;101775.16;4983254;28;20046;-88
2023/03/17 04:47:41;;;;;;;5.15;4.07;;;;;;;9.77;76.68;101820.72;5010143;28;20496;-88
2023/03/17 04:50:08;;;;;;;5.40;4.50;;;;;;;9.34;76.91;101760.16;4997736;28;20038;-88
2023/03/17 04:52:35;;;;;;;6.57;4.53;;;;;;;9.82;76.03;101836.72;4973060;28;20470;-88
2023/03/17 04:55:02;;;;;;;5.85;4.30;;;;;;;9.65;76.59;101812.91;4993481;28;20030;-87
2023/03/17 04:57:27;;;;;;;5.32;4.35;;;;;;;9.47;76.76;101782.84;4978712;28;20510;-87
2023/03/17 04:59:53;;;;;;;6.50;4.72;;;;;;;9.60;76.60;101823.78;4994101;28;20041;-87
2023/03/17 05:02:18;;;;;;;5.40;4.35;;;;;;;9.44;76.40;101787.81;4982321;28;20056;-88
2023/03/17 05:04:44;;;;;;;8.77;5.28;;;;;;;9.66;76.24;101832.97;4975482;28;20030;-88
2023/03/17 05:07:11;;;;;;;7.25;4.75;;;;;;;9.36;76.74;101788.16;4987026;28;20123;-88
2023/03/17 05:09:37;;;;;;;7.65;4.50;;;;;;;9.65;76.77;101848.50;4990549;28;20462;-90
2023/03/17 05:12:05;;;;;;;7.40;4.53;;;;;;;9.67;76.96;101849.50;4978363;28;20057;-88
2023/03/17 05:14:32;;;;;;;7.38;4.88;;;;;;;9.60;76.28;101844.66;4987209;28;20018;-90
2023/03/17 05:16:58;;;;;;;6.07;4.60;;;;;;;9.55;76.67;101852.13;4995018;28;20038;-90
2023/03/17 05:19:23;;;;;;;5.57;4.28;;;;;;;9.58;76.98;101868.91;5006474;28;20030;-89
2023/03/17 05:21:50;;;;;;;5.70;4.60;;;;;;;9.61;77.05;101859.47;4989126;28;20404;-90
2023/03/17 05:24:16;;;;;;;5.35;4.15;;;;;;;9.58;76.64;101857.56;4994059;28;20129;-88
2023/03/17 05:26:42;;;;;;;6.93;4.20;;;;;;;9.59;76.65;101869.81;4971589;28;20579;-89
2023/03/17 05:29:07;;;;;;;5.45;4.10;;;;;;;9.72;77.03;101895.13;4980049;28;20111;-89
2023/03/17 05:31:33;;;;;;;6.25;4.32;;;;;;;9.77;76.57;101898.97;4994163;28;20056;-89
2023/03/17 05:33:59;;;;;;;5.63;4.22;;;;;;;9.43;76.80;101846.88;4985375;28;20056;-88
2023/03/17 05:36:24;;;;;;;6.20;4.70;;;;;;;9.66;76.71;101892.06;4990699;28;20030;-87
2023/03/17 05:38:51;;;;;;;5.07;4.15;;;;;;;9.58;76.48;101878.44;4971670;28;20050;-88
2023/03/17 05:41:16;;;;;;;4.63;3.72;;;;;;;9.63;76.78;101897.97;5008901;28;20087;-87
2023/03/17 05:43:44;;;;;;;5.35;3.80;;;;;;;9.57;77.16;101889.66;4998414;28;20037;-86
2023/03/17 05:46:10;;;;;;;6.22;4.18;;;;;;;9.62;76.70;101895.22;4993401;28;20415;-88
2023/03/17 05:48:35;;;;;;;5.13;3.40;;;;;;;9.42;76.17;101862.41;4999646;28;20030;-89
2023/03/17 05:51:01;;;;;;;5.40;3.88;;;;;;;9.41;76.53;101858.00;4993805;28;20432;-88
2023/03/17 05:53:27;;;;;;;5.50;3.70;;;;;;;9.66;76.49;101906.00;4986101;28;20124;-88
2023/03/17 05:55:54;;;;;;;7.47;4.28;;;;;;;9.55;75.95;101881.72;4986525;28;20042;-87
2023/03/17 05:58:19;;;;;;;4.65;3.90;;;;;;;9.41;76.31;101869.31;4992194;28;20026;-89
2023/03/17 06:00:46;;;;;;;5.20;3.80;;;;;;;9.60;77.41;101908.13;5005656;28;20477;-88
2023/03/17 06:03:11;;;;;;;5.00;3.60;;;;;;;9.73;76.83;101921.31;4997704;28;20036;-86
2023/03/17 06:05:37;;;;;;;4.78;3.90;;;;;;;9.73;76.18;101936.97;4988109;28;20022;-88
2023/03/17 06:08:04;;;;;;;6.15;4.00;;;;;;;9.72;76.41;101939.47;4991470;28;20046;-88
2023/03/17 06:10:30;;;;;;;5.32;3.47;;;;;;;9.60;76.72;101920.28;5007242;28;20103;-87
2023/03/17 06:12:57;;;;;;;;;;;;;;;9.74;76.64;101936.19;5012640;28;20033;-88
2023/03/17 06:15:24;;;;;;;4.40;3.58;;;;;;;9.75;76.64;101934.47;4990120;28;20379;-89
2023/03/17 06:17:50;;;;;;;5.65;3.90;;;;;;;9.58;76.54;101921.03;4968645;28;20030;-90
2023/03/17 06:20:17;;;;;;;4.75;3.58;;;;;;;9.63;77.15;101925.72;4995072;28;20076;-90
2023/03/17 06:22:43;;;;;;;4.07;3.42;;;;;;;9.55;76.39;101927.75;5006492;28;20321;-91
2023/03/17 06:25:10;;;;;;;4.55;3.42;;;;;;;9.69;76.37;101939.22;4993848;28;20406;-88
2023/03/17 06:27:37;;;;;;;5.57;3.50;;;;;;;9.41;76.54;101903.22;4998631;28;21145;-90
2023/03/17 06:30:05;;;;;;;4.38;3.40;;;;;;;9.58;76.64;101943.63;4990852;28;20511;-89
2023/03/17 06:32:36;;;;;;;6.80;3.80;;;;;;;9.48;76.46;101925.44;4988312;28;20416;-88
2023/03/17 06:35:04;;;;;;;6.28;3.67;;;;;;;9.55;77.08;101926.03;4993210;28;20057;-89
2023/03/17 06:37:30;;;;;;;4.55;3.30;;;;;;;9.64;76.77;101940.59;4991133;28;20037;-89
2023/03/17 06:40:03;;;;;;;4.35;3.67;;;;;;;9.53;76.67;101931.94;4977066;28;20039;-92
2023/03/17 06:42:30;;;;;;;4.85;3.70;;;;;;;9.24;76.84;101886.28;5000378;28;20037;-91
2023/03/17 06:45:02;;;;;;;6.85;3.70;;;;;;;9.37;76.59;101894.22;4980661;28;20561;-91
2023/03/17 06:47:38;;;;;;;5.15;3.42;;;;;;;9.64;76.71;101957.13;4990104;28;20069;-90
2023/03/17 06:50:05;;;;;;;4.20;3.22;;;;;;;9.60;76.48;101944.66;4984645;28;20033;-90
2023/03/17 06:52:31;;;;;;;4.97;3.60;;;;;;;9.40;76.71;101922.28;4981036;28;20034;-90
2023/03/17 06:54:57;;;;;;;4.63;3.50;;;;;;;9.57;76.45;101944.44;4986504;28;20469;-88
2023/03/17 06:57:22;;;;;;;3.35;3.05;;;;;;;9.46;76.74;101932.25;4994182;28;20488;-88
2023/03/17 07:00:22;;;;;;;5.22;3.67;;;;;;;9.72;75.64;101962.94;4987024;28;20392;-88
2023/03/17 07:02:50;;;;;;;5.47;3.72;;;;;;;9.56;74.51;101946.09;4999202;28;20029;-87
2023/03/17 07:05:16;;;;;;;7.35;3.72;;;;;;;9.47;75.36;101934.06;4978237;28;20420;-89
2023/03/17 07:07:42;;;;;;;5.75;3.95;;;;;;;9.62;75.99;101955.22;4998966;28;20498;-89
2023/03/17 07:10:12;;;;;;;7.88;3.90;;;;;;;9.37;76.13;101917.69;5009474;28;20108;-89
2023/03/17 07:12:38;;;;;;;5.65;3.80;;;;;;;9.37;75.97;101924.63;4993542;28;20049;-87
2023/03/17 07:15:04;;;;;;;6.25;3.75;;;;;;;9.38;76.07;101926.44;4991046;28;20483;-88
2023/03/17 07:17:29;;;;;;;4.82;3.35;;;;;;;9.52;76.31;101964.91;5001890;28;20089;-88
2023/03/17 07:19:56;;;;;;;5.93;3.80;;;;;;;9.35;76.46;101921.88;5006250;28;20061;-89
2023/03/17 07:22:22;;;;;;;4.82;3.72;;;;;;;9.55;76.16;101949.50;5002247;28;20034;-87
2023/03/17 07:24:48;;;;;;;5.80;3.45;;;;;;;9.47;76.33;101926.25;4979391;28;20033;-88
2023/03/17 07:27:17;;;;;;;6.65;3.97;;;;;;;9.38;76.30;101913.41;4979273;28;20018;-88
2023/03/17 07:29:43;;;;;;;5.22;3.80;;;;;;;9.35;76.41;101915.78;4995386;28;20112;-88
2023/03/17 07:32:09;;;;;;;6.40;4.22;;;;;;;9.38;76.04;101908.22;4995409;28;20167;-88
2023/03/17 07:34:36;;;;;;;6.22;3.97;;;;;;;9.52;76.09;101933.63;4995318;28;20037;-87
2023/03/17 07:37:05;;;;;;;5.85;4.07;;;;;;;9.57;76.27;101947.94;5002646;28;20050;-89
2023/03/17 07:39:30;;;;;;;5.68;3.65;;;;;;;9.28;75.92;101901.38;4975889;28;20036;-88
2023/03/17 07:41:56;;;;;;;5.25;3.75;;;;;;;9.57;76.30;101949.66;5004938;28;20022;-89
2023/03/17 07:44:24;;;;;;;4.75;3.80;;;;;;;9.50;76.80;101956.09;4978999;28;20092;-89
2023/03/17 07:46:50;;;;;;;6.72;4.00;;;;;;;9.53;75.97;101945.88;4987807;28;20025;-89
2023/03/17 07:49:18;;;;;;;5.85;3.83;;;;;;;9.44;76.09;101941.63;4966778;28;20058;-89
2023/03/17 07:51:46;;;;;;;5.47;3.50;;;;;;;9.30;76.27;101922.34;4994005;28;20037;-89
2023/03/17 07:54:13;;;;;;;5.75;3.25;;;;;;;9.44;76.54;101953.00;4992971;28;20130;-88
2023/03/17 07:56:39;;;;;;;5.63;3.75;;;;;;;9.42;76.63;101957.19;5012890;28;20029;-88
2023/03/17 07:59:07;;;;;;;5.07;3.33;;;;;;;9.53;76.10;101974.56;4991161;28;20023;-87
2023/03/17 08:01:33;;;;;;;4.35;3.65;;;;;;;9.38;76.02;101929.97;4992345;28;20049;-88
2023/03/17 08:04:00;;;;;;;6.25;3.70;;;;;;;9.53;76.04;101971.06;4991021;28;20113;-88
2023/03/17 08:06:26;;;;;;;5.22;3.58;;;;;;;9.35;76.31;101950.56;4991337;28;20031;-86
2023/03/17 08:08:53;;;;;;;5.25;3.38;;;;;;;9.52;75.82;101969.22;5000823;28;20527;-88
2023/03/17 08:11:19;;;;;;;5.07;3.22;;;;;;;9.37;76.26;101943.78;4981594;28;20049;-86
2023/03/17 08:13:45;;;;;;;;;;;;;;;9.54;75.94;101967.66;4994705;28;20022;-86
2023/03/17 08:16:10;;;;;;;5.53;3.33;;;;;;;9.44;75.50;101975.53;4994040;28;19914;-88
2023/03/17 08:18:37;;;;;;;5.35;3.50;;;;;;;9.34;76.32;101972.22;5001334;28;20407;-87
2023/03/17 08:21:03;;;;;;;5.47;3.65;;;;;;;9.08;76.62;101922.34;4978447;28;20535;-88
2023/03/17 08:23:29;;;;;;;6.95;3.38;;;;;;;9.32;76.39;101965.97;5001246;28;20051;-89
2023/03/17 08:25:58;;;;;;;4.57;3.47;;;;;;;9.45;76.20;101974.75;4991361;28;20077;-88
2023/03/17 08:28:24;;;;;;;6.40;3.47;;;;;;;9.46;76.23;101979.16;4974767;28;20034;-88
2023/03/17 08:30:49;;;;;;;5.45;3.75;;;;;;;9.20;75.60;101941.56;4991257;28;20027;-88
2023/03/17 08:33:17;;;;;;;5.30;3.90;;;;;;;9.25;76.17;101944.50;4992333;28;20105;-88
2023/03/17 08:35:43;;;;;;;5.20;3.45;;;;;;;9.11;76.02;101928.72;4974251;28;20178;-88
2023/03/17 08:38:09;;;;;;;5.07;3.08;;;;;;;9.22;75.84;101932.16;4991105;28;20058;-88
2023/03/17 08:40:35;;;;;;;4.70;3.25;;;;;;;9.21;75.76;101937.25;4991197;28;20077;-86
2023/03/17 08:43:01;;;;;;;;;;;;;;;9.51;75.84;101983.06;4994722;28;20470;-87
2023/03/17 08:45:27;;;;;;;4.60;3.15;;;;;;;9.33;75.99;101951.25;5008221;28;19972;-88
2023/03/17 08:47:53;;;;;;;5.13;3.20;;;;;;;9.49;75.75;101988.16;4980232;28;20049;-89
2023/03/17 08:50:21;;;;;;;4.05;3.05;;;;;;;9.45;75.70;101974.75;5008056;28;20407;-88
2023/03/17 08:52:47;;;;;;;4.97;3.17;;;;;;;9.45;76.17;101979.97;4975185;28;20031;-89
2023/03/17 08:55:14;;;;;;;;;;;;;;;9.52;75.73;101977.94;4991275;28;20030;-86
2023/03/17 08:57:40;;;;;;;5.20;3.20;;;;;;;9.29;74.74;101943.97;5000873;28;19992;-88
2023/03/17 09:00:10;;;;;;;5.68;3.90;;;;;;;9.45;75.13;101973.06;4990852;28;20049;-89
2023/03/17 09:02:41;;;;;;;3.78;3.17;;;;;;;9.38;75.85;101950.81;4975319;28;20041;-88
2023/03/17 09:05:10;;;;;;;4.80;3.15;;;;;;;9.51;75.45;101972.63;4991533;28;20015;-88
2023/03/17 09:07:36;;;;;;;6.57;3.40;;;;;;;9.14;75.49;101902.91;4990307;28;20029;-86
2023/03/17 09:10:03;;;;;;;4.18;3.13;;;;;;;9.51;75.63;101972.63;4997365;28;20029;-88
2023/03/17 09:12:29;;;;;;;4.38;3.20;;;;;;;9.38;76.06;101947.31;4984967;28;20034;-88
2023/03/17 09:14:56;;;;;;;6.15;3.10;;;;;;;9.40;75.17;101936.97;4993814;28;20160;-88
2023/03/17 09:17:23;;;;;;;4.93;3.15;;;;;;;9.19;75.35;101897.16;4994326;28;20026;-88
2023/03/17 09:19:49;;;;;;;4.43;3.20;;;;;;;9.46;75.76;101946.22;4981472;28;20135;-88
2023/03/17 09:22:20;;;;;;;4.22;2.90;;;;;;;9.43;75.65;101926.81;5011389;28;20030;-88
2023/03/17 09:24:45;;;;;;;5.72;3.08;;;;;;;9.48;75.55;101939.41;4999668;28;20022;-88
2023/03/17 09:27:11;;;;;;;5.25;3.00;;;;;;;9.51;75.48;101931.81;4992842;28;20088;-88
2023/03/17 09:29:37;;;;;;;5.18;3.63;;;;;;;9.45;75.20;101914.78;4982500;28;20037;-88
2023/03/17 09:32:02;;;;;;;4.45;3.20;;;;;;;9.39;75.83;101915.22;4993740;28;20476;-88
2023/03/17 09:34:28;;;;;;;3.65;2.80;;;;;;;9.53;75.52;101944.97;4993167;28;20037;-88
2023/03/17 09:36:54;;;;;;;5.05;3.10;;;;;;;9.45;75.70;101940.88;4991823;28;20074;-88
2023/03/17 09:39:23;;;;;;;4.55;2.80;;;;;;;9.13;75.62;101900.19;4974484;28;20022;-88
2023/03/17 09:42:11;;;;;;;4.57;3.00;;;;;;;9.47;75.86;101960.16;4990261;28;20037;-88
2023/03/17 09:44:55;;;;;;;5.00;2.70;;;;;;;9.48;75.58;101946.31;4987114;28;20032;-87
2023/03/17 09:47:47;;;;;;;6.07;3.10;;;;;;;9.51;75.52;101938.75;4992955;28;20029;-89
2023/03/17 09:50:36;;;;;;;5.07;2.85;;;;;;;9.48;74.95;101935.88;4996475;28;20030;-88
2023/03/17 09:53:03;;;;;;;4.60;2.78;;;;;;;9.27;75.64;101904.78;4972527;28;20041;-88
2023/03/17 09:55:31;;;;;;;4.53;2.72;;;;;;;9.22;75.57;101900.88;4977910;28;20026;-90
2023/03/17 09:57:57;;;;;;;4.25;2.80;;;;;;;9.41;75.63;101942.31;4993568;28;20026;-89
2023/03/17 10:00:28;;;;;;;;;;;;;;;9.48;75.78;101943.69;5000516;28;20037;-89
2023/03/17 10:02:56;;;;;;;5.13;2.60;;;;;;;9.46;74.71;101950.50;4997406;28;20321;-87
2023/03/17 10:05:27;;;;;;;3.80;2.65;;;;;;;9.53;75.05;101947.59;4997892;28;20018;-87
2023/03/17 10:07:58;;;;;;;3.67;2.65;;;;;;;9.51;75.71;101946.56;5000003;28;20026;-87
2023/03/17 10:10:49;;;;;;;5.72;2.80;;;;;;;9.58;75.39;101946.22;5004722;28;20396;-87
2023/03/17 10:13:27;;;;;;;5.28;2.80;;;;;;;9.44;75.59;101926.94;5010468;28;20053;-88
2023/03/17 10:15:58;;;;;;;5.38;2.35;;;;;;;9.61;75.21;101950.75;5013349;28;20030;-87
2023/03/17 10:18:28;;;;;;;4.15;2.50;;;;;;;9.56;75.05;101938.28;4995160;28;20531;-88
2023/03/17 10:21:03;;;;;;;3.70;2.53;;;;;;;9.47;75.47;101928.84;4978096;28;20392;-88
2023/03/17 10:23:32;;;;;;;4.25;2.50;;;;;;;9.46;75.47;101921.81;4993798;28;20026;-87
2023/03/17 10:26:04;;;;;;;3.92;2.47;;;;;;;9.63;74.89;101942.28;4994104;28;20018;-88
2023/03/17 10:28:35;;;;;;;4.88;2.80;;;;;;;9.40;75.48;101916.13;4990685;28;20084;-88
2023/03/17 10:31:28;;;;;;;3.90;2.47;;;;;;;9.43;75.50;101916.38;4991664;28;20033;-88
2023/03/17 10:33:57;;;;;;;4.05;2.50;;;;;;;9.43;75.34;101900.72;4985718;28;20042;-88
2023/03/17 10:36:37;;;;;;;3.03;2.35;;;;;;;9.42;75.34;101902.44;4990098;28;20022;-88
2023/03/17 10:39:05;;;;;;;3.92;2.90;;;;;;;9.51;75.21;101915.28;4989774;28;20036;-89
2023/03/17 10:41:37;;;;;;;4.72;2.90;;;;;;;9.62;75.23;101922.19;4994233;28;20018;-88
2023/03/17 10:44:08;;;;;;;3.47;2.53;;;;;;;9.66;75.17;101923.34;4993494;28;20054;-88
2023/03/17 10:46:37;;;;;;;3.22;2.40;;;;;;;9.68;75.27;101929.59;4993880;28;20109;-88
2023/03/17 10:49:25;;;;;;;5.40;2.70;;;;;;;9.64;75.47;101911.91;4993102;28;20057;-87
2023/03/17 10:51:52;;;;;;;3.35;2.33;;;;;;;9.59;75.21;101914.16;4976335;28;20084;-87
2023/03/17 10:54:20;;;;;;;3.17;2.33;;;;;;;9.60;75.32;101905.53;4982393;28;20033;-88
2023/03/17 10:56:48;;;;;;;4.68;2.35;;;;;;;9.58;75.45;101909.72;4993094;28;20044;-87
2023/03/17 10:59:19;;;;;;;3.58;2.70;;;;;;;9.65;75.36;101913.69;4994546;28;20057;-88
2023/03/17 11:02:11;;;;;;;3.60;2.42;;;;;;;9.51;75.64;101891.81;4976869;28;20848;-88
2023/03/17 11:04:41;;;;;;;3.03;2.20;;;;;;;9.57;75.66;101913.13;4976447;28;20491;-87
2023/03/17 11:07:17;;;;;;;3.10;2.28;;;;;;;9.49;75.45;101903.81;4985134;28;20060;-87
2023/03/17 11:09:48;;;;;;;3.70;2.70;;;;;;;9.60;74.83;101910.75;4996165;28;20523;-87
2023/03/17 11:12:43;;;;;;;3.78;2.30;;;;;;;9.67;74.75;101914.72;4992685;28;20455;-88
2023/03/17 11:15:16;;;;;;;3.95;2.53;;;;;;;9.60;75.49;101917.66;4987551;28;20408;-87
2023/03/17 11:17:58;;;;;;;5.00;2.70;;;;;;;9.62;75.00;101924.81;4994735;28;20041;-86
2023/03/17 11:20:35;;;;;;;5.15;2.42;;;;;;;9.48;74.84;101888.94;5007124;28;20069;-87
2023/03/17 11:23:03;;;;;;;;;;;;;;;9.61;74.98;101904.75;4967205;28;20037;-86
2023/03/17 11:25:30;;;;;;;3.28;2.20;;;;;;;9.50;75.18;101883.09;5013289;28;19917;-86
2023/03/17 11:28:18;;;;;;;3.65;2.30;;;;;;;9.65;75.08;101911.09;4998021;28;20038;-86
2023/03/17 11:30:59;;;;;;;4.05;2.67;;;;;;;9.52;74.85;101877.97;5010627;28;20061;-88
2023/03/17 11:33:32;;;;;;;3.92;2.80;;;;;;;9.66;75.13;101900.78;5005154;28;20061;-86
2023/03/17 11:36:21;;;;;;;4.15;2.58;;;;;;;9.63;75.10;101900.56;4974459;28;20026;-86
2023/03/17 11:38:58;;;;;;;4.32;2.60;;;;;;;9.54;74.98;101892.03;4986579;28;20054;-88
2023/03/17 11:41:33;;;;;;;3.58;2.42;;;;;;;9.70;74.44;101900.22;4993577;28;20499;-87